Time;durP1;ratioP1;P1;durP2;ratioP2;P2;SDS_P1;SDS_P2;PMS_P1;PMS_P2;Temp;Humidity;BMP_temperature;BMP_pressure;BME280_temperature;BME280_humidity;BME280_pressure;Samples;Min_cycle;Max_cycle;Signal;HPM_P1;HPM_P2
2023/06/19 00:02:08;;;;;;;7.10;6.20;;;;;;;15.20;70.90;96649.69;112316;1242;25378;-88
2023/06/19 00:04:39;;;;;;;5.80;5.10;;;;;;;15.20;71.37;96651.56;112325;1242;22489;-88
2023/06/19 00:07:08;;;;;;;7.00;6.10;;;;;;;15.32;71.40;96651.24;112356;1243;43445;-88
2023/06/19 00:09:39;;;;;;;8.10;6.60;;;;;;;15.35;71.23;96651.64;112305;1243;22516;-87
2023/06/19 00:12:08;;;;;;;7.20;6.50;;;;;;;15.28;70.99;96654.45;112311;1242;22502;-87
2023/06/19 00:14:39;;;;;;;;;;;;;;;15.18;71.03;96652.90;112340;1239;22573;-87
2023/06/19 00:17:08;;;;;;;8.50;6.70;;;;;;;14.97;71.06;96652.99;112313;1242;37786;-87
2023/06/19 00:19:40;;;;;;;7.90;6.50;;;;;;;14.87;71.63;96649.81;112332;1242;22503;-87
2023/06/19 00:22:09;;;;;;;7.20;6.50;;;;;;;14.83;71.56;96647.88;112321;1243;22565;-86
2023/06/19 00:24:38;;;;;;;8.60;6.60;;;;;;;14.70;71.86;96646.16;112389;1243;22591;-87
2023/06/19 00:27:08;;;;;;;8.30;6.70;;;;;;;14.65;72.06;96646.94;112292;1242;58351;-87
2023/06/19 00:29:37;;;;;;;7.60;6.80;;;;;;;14.58;72.31;96648.95;112311;1243;22550;-87
2023/06/19 00:32:07;;;;;;;7.30;6.60;;;;;;;14.57;72.69;96651.39;112307;1242;22540;-87
2023/06/19 00:34:38;;;;;;;8.30;7.10;;;;;;;14.59;72.79;96650.49;112297;1242;22825;-87
2023/06/19 00:37:09;;;;;;;8.30;6.70;;;;;;;14.61;73.05;96651.76;112329;1242;22675;-87
2023/06/19 00:39:38;;;;;;;9.90;7.20;;;;;;;14.64;73.16;96649.52;112306;1243;22523;-86
2023/06/19 00:42:07;;;;;;;7.40;6.50;;;;;;;14.68;73.33;96649.70;112332;1242;22535;-87
2023/06/19 00:44:38;;;;;;;6.80;6.10;;;;;;;14.80;73.75;96649.23;112323;1242;25356;-87
2023/06/19 00:47:07;;;;;;;8.90;7.30;;;;;;;15.02;73.80;96649.98;112213;1242;82581;-87
2023/06/19 00:49:38;;;;;;;7.60;6.60;;;;;;;15.23;73.60;96646.45;112327;1242;22508;-87
2023/06/19 00:52:08;;;;;;;7.30;6.60;;;;;;;15.42;73.36;96648.42;112319;1242;23221;-87
2023/06/19 00:54:40;;;;;;;7.80;6.50;;;;;;;15.54;73.05;96648.16;112329;1243;24279;-87
2023/06/19 00:57:09;;;;;;;7.60;6.50;;;;;;;15.63;72.82;96649.61;112291;1242;41718;-87
2023/06/19 00:59:38;;;;;;;6.70;6.00;;;;;;;15.68;72.60;96642.30;112296;1242;25306;-87
2023/06/19 01:02:07;;;;;;;7.00;6.30;;;;;;;15.69;72.36;96640.91;112321;1242;22587;-87
2023/06/19 01:04:35;;;;;;;;;;;;;;;15.68;72.11;96641.33;112338;1242;22507;-87
2023/06/19 01:07:10;;;;;;;7.10;6.10;;;;;;;15.63;72.08;96643.30;112025;1240;66928;-87
2023/06/19 01:09:46;;;;;;;7.70;6.30;;;;;;;15.59;72.01;96642.08;112305;1239;22492;-88
2023/06/19 01:12:18;;;;;;;7.70;6.50;;;;;;;15.57;71.91;96641.59;112100;1242;22581;-88
2023/06/19 01:14:57;;;;;;;7.30;6.60;;;;;;;15.52;71.95;96642.38;112309;1239;22621;-87
2023/06/19 01:17:27;;;;;;;7.40;6.50;;;;;;;15.50;71.92;96643.40;110408;1242;2467803;-87
2023/06/19 01:19:57;;;;;;;6.80;6.10;;;;;;;15.49;71.94;96641.73;112297;1242;22501;-86
2023/06/19 01:22:27;;;;;;;7.60;6.80;;;;;;;15.43;71.92;96638.87;112322;1242;22502;-87
2023/06/19 01:24:56;;;;;;;7.40;6.70;;;;;;;15.41;71.94;96638.33;112291;1243;22489;-87
2023/06/19 01:27:29;;;;;;;7.90;6.80;;;;;;;15.37;71.92;96637.70;112057;1240;39982;-87
2023/06/19 01:30:00;;;;;;;7.30;6.40;;;;;;;15.32;71.95;96637.98;112318;1242;22517;-88
2023/06/19 01:32:37;;;;;;;7.80;7.00;;;;;;;15.20;71.91;96636.44;112298;1242;22497;-86
2023/06/19 01:35:09;;;;;;;7.50;6.70;;;;;;;15.03;72.06;96638.27;112304;1242;22516;-87
2023/06/19 01:37:42;;;;;;;7.50;6.70;;;;;;;14.94;72.58;96637.69;112315;1242;22513;-87
2023/06/19 01:40:13;;;;;;;8.60;6.90;;;;;;;15.00;72.98;96634.98;112309;1242;22511;-87
2023/06/19 01:42:43;;;;;;;7.30;6.60;;;;;;;15.07;73.13;96633.61;112291;1242;22524;-87
2023/06/19 01:45:12;;;;;;;7.50;6.10;;;;;;;15.20;73.28;96637.13;112339;1239;22539;-87
2023/06/19 01:47:46;;;;;;;8.10;6.90;;;;;;;15.32;73.41;96637.57;112322;1242;22501;-87
2023/06/19 01:50:15;;;;;;;7.30;6.50;;;;;;;15.40;73.29;96642.79;112301;1242;22524;-87
2023/06/19 01:52:45;;;;;;;9.80;6.60;;;;;;;15.43;73.17;96644.84;112299;1242;22573;-86
2023/06/19 01:55:14;;;;;;;8.50;7.30;;;;;;;15.43;73.03;96643.02;112360;1242;24124;-87
2023/06/19 01:57:42;;;;;;;;;;;;;;;15.42;72.99;96644.84;112287;1239;23291;-87
2023/06/19 02:00:12;;;;;;;6.90;6.20;;;;;;;15.39;72.95;96644.48;112318;1242;22510;-87
2023/06/19 02:02:42;;;;;;;8.80;6.90;;;;;;;15.42;73.04;96646.82;112293;1242;22515;-86
2023/06/19 02:05:11;;;;;;;7.30;6.60;;;;;;;15.43;72.95;96643.55;112318;1243;22512;-87
2023/06/19 02:07:40;;;;;;;8.00;7.00;;;;;;;15.43;72.91;96644.96;112271;1242;54947;-87
2023/06/19 02:10:10;;;;;;;8.20;7.10;;;;;;;15.41;72.83;96646.69;112299;1242;22517;-86
2023/06/19 02:12:38;;;;;;;7.50;6.80;;;;;;;15.37;72.83;96644.64;112308;1242;22565;-86
2023/06/19 02:15:11;;;;;;;8.40;6.90;;;;;;;15.35;72.83;96652.67;112092;1242;22509;-87
2023/06/19 02:17:42;;;;;;;7.60;6.80;;;;;;;15.34;72.89;96649.91;112240;1242;83881;-86
2023/06/19 02:20:12;;;;;;;7.80;6.60;;;;;;;15.34;72.96;96654.45;112302;1242;22512;-87
2023/06/19 02:22:41;;;;;;;7.50;6.60;;;;;;;15.35;72.96;96657.27;112299;1242;25237;-86
2023/06/19 02:25:10;;;;;;;7.40;6.50;;;;;;;15.34;72.94;96656.75;112304;1242;22531;-87
2023/06/19 02:27:40;;;;;;;7.70;6.90;;;;;;;15.33;72.98;96653.39;112226;1242;82146;-86
2023/06/19 02:30:11;;;;;;;7.60;6.80;;;;;;;15.32;72.94;96656.19;112315;1242;22585;-86
2023/06/19 02:32:39;;;;;;;7.20;6.30;;;;;;;15.30;73.06;96652.83;112290;1242;25443;-87
2023/06/19 02:35:11;;;;;;;7.80;6.40;;;;;;;15.29;73.11;96652.60;112322;1242;23220;-86
2023/06/19 02:37:43;;;;;;;7.40;6.60;;;;;;;15.32;73.24;96650.60;112246;1243;34366;-87
2023/06/19 02:40:15;;;;;;;8.00;7.20;;;;;;;15.33;73.24;96650.73;112120;1235;22502;-87
2023/06/19 02:42:45;;;;;;;8.90;7.30;;;;;;;15.32;73.22;96648.77;112317;1242;22499;-87
2023/06/19 02:45:15;;;;;;;8.40;6.70;;;;;;;15.30;73.27;96654.24;112290;1242;22523;-87
2023/06/19 02:47:43;;;;;;;7.90;6.80;;;;;;;15.29;73.54;96650.69;112104;1243;22502;-86
2023/06/19 02:50:14;;;;;;;8.00;7.20;;;;;;;15.33;73.63;96657.40;112280;1242;22482;-87
2023/06/19 02:52:42;;;;;;;8.00;7.20;;;;;;;15.35;73.63;96656.45;112291;1242;22517;-87
2023/06/19 02:55:16;;;;;;;8.00;7.10;;;;;;;15.35;73.71;96657.73;112325;1242;22479;-87
2023/06/19 02:57:46;;;;;;;8.00;7.00;;;;;;;15.34;73.81;96657.39;112284;1242;22526;-87
2023/06/19 03:00:14;;;;;;;;;;;;;;;15.35;73.85;96655.88;112335;1242;22526;-87
2023/06/19 03:02:44;;;;;;;7.80;6.80;;;;;;;15.33;73.90;96657.40;112293;1239;22498;-86
2023/06/19 03:05:15;;;;;;;11.50;6.90;;;;;;;15.30;73.84;96650.50;112285;1242;22512;-86
2023/06/19 03:07:44;;;;;;;7.80;7.00;;;;;;;15.27;73.96;96655.48;112277;1233;22499;-86
2023/06/19 03:10:13;;;;;;;7.40;6.70;;;;;;;15.28;74.04;96654.67;112300;1243;25328;-86
2023/06/19 03:12:42;;;;;;;8.30;7.00;;;;;;;15.25;74.11;96654.35;112278;1243;22528;-86
2023/06/19 03:15:11;;;;;;;8.10;7.30;;;;;;;15.24;74.16;96656.48;112302;1242;25170;-86
2023/06/19 03:17:39;;;;;;;7.90;6.60;;;;;;;15.24;74.40;96653.69;112036;1242;88877;-86
2023/06/19 03:20:11;;;;;;;8.80;7.40;;;;;;;15.24;74.40;96655.95;112288;1243;22517;-86
2023/06/19 03:22:41;;;;;;;7.90;7.10;;;;;;;15.25;74.54;96657.84;112317;1242;22515;-86
2023/06/19 03:25:11;;;;;;;8.30;7.40;;;;;;;15.25;74.56;96659.54;112290;1242;22562;-86
2023/06/19 03:27:39;;;;;;;9.20;7.30;;;;;;;15.28;74.80;96660.20;112219;1242;55798;-86
2023/06/19 03:30:12;;;;;;;7.90;6.90;;;;;;;15.32;74.80;96664.96;112299;1242;22532;-87
2023/06/19 03:32:41;;;;;;;7.80;7.00;;;;;;;15.35;74.85;96662.86;112293;1242;22591;-87
2023/06/19 03:35:12;;;;;;;7.60;6.80;;;;;;;15.41;74.98;96666.96;112267;1242;23247;-87
2023/06/19 03:37:41;;;;;;;7.50;6.80;;;;;;;15.48;75.02;96665.05;112234;1242;49559;-87
2023/06/19 03:40:13;;;;;;;7.30;6.60;;;;;;;15.52;74.96;96669.75;112257;1242;22594;-87
2023/06/19 03:42:42;;;;;;;10.00;7.70;;;;;;;15.56;74.81;96670.61;112279;1242;22501;-87
2023/06/19 03:45:11;;;;;;;7.60;6.90;;;;;;;15.59;74.96;96671.70;112299;1239;22513;-87
2023/06/19 03:47:40;;;;;;;8.40;6.70;;;;;;;15.63;74.86;96670.88;112240;1242;49795;-87
2023/06/19 03:50:10;;;;;;;7.50;6.70;;;;;;;15.64;74.71;96672.00;112257;1242;22532;-87
2023/06/19 03:52:39;;;;;;;7.80;7.00;;;;;;;15.67;74.79;96674.50;112153;1242;24613;-87
2023/06/19 03:55:09;;;;;;;8.60;6.70;;;;;;;15.72;74.66;96677.45;112282;1242;24259;-86
2023/06/19 03:57:39;;;;;;;7.70;6.90;;;;;;;15.77;74.73;96679.05;112244;1243;56988;-87
2023/06/19 04:00:12;;;;;;;6.90;6.10;;;;;;;15.79;74.68;96679.04;112273;1243;22557;-87
2023/06/19 04:02:43;;;;;;;7.60;6.70;;;;;;;15.82;74.65;96676.66;112281;1242;25312;-87
2023/06/19 04:05:11;;;;;;;7.80;6.90;;;;;;;15.84;74.46;96676.81;112260;1239;22506;-87
2023/06/19 04:07:40;;;;;;;7.20;6.40;;;;;;;15.84;74.45;96677.29;112208;1239;62904;-86
2023/06/19 04:10:14;;;;;;;9.10;6.50;;;;;;;15.87;74.33;96673.08;112265;1242;22578;-87
2023/06/19 04:12:47;;;;;;;8.00;7.20;;;;;;;15.90;74.47;96674.75;112267;1242;26445;-87
2023/06/19 04:15:17;;;;;;;7.70;6.90;;;;;;;15.97;74.46;96674.20;112303;1235;22966;-87
2023/06/19 04:17:46;;;;;;;9.20;7.30;;;;;;;16.01;74.31;96671.77;112268;1242;22582;-87
2023/06/19 04:20:14;;;;;;;;;;;;;;;16.06;74.37;96672.51;112292;1239;22505;-87
2023/06/19 04:22:43;;;;;;;7.10;6.40;;;;;;;16.09;74.22;96668.65;112309;1242;22571;-87
2023/06/19 04:25:13;;;;;;;8.90;6.40;;;;;;;16.14;74.20;96672.92;112259;1242;22552;-87
2023/06/19 04:27:44;;;;;;;7.50;6.40;;;;;;;16.18;74.15;96675.57;112233;1242;35120;-87
2023/06/19 04:30:17;;;;;;;7.70;6.90;;;;;;;16.23;74.13;96678.20;112280;1242;24233;-87
2023/06/19 04:32:46;;;;;;;8.30;7.00;;;;;;;16.30;74.03;96678.63;112245;1242;22496;-87
2023/06/19 04:35:18;;;;;;;6.30;5.70;;;;;;;16.36;73.84;96680.71;112173;1242;22536;-87
2023/06/19 04:37:51;;;;;;;6.50;5.90;;;;;;;16.43;73.85;96681.98;112275;1242;25313;-87
2023/06/19 04:40:19;;;;;;;7.40;6.60;;;;;;;16.51;73.78;96678.98;112260;1242;22518;-87
2023/06/19 04:42:53;;;;;;;7.80;6.40;;;;;;;16.58;73.74;96679.83;112305;1239;25080;-87
2023/06/19 04:45:22;;;;;;;7.00;5.90;;;;;;;16.63;73.68;96680.85;112210;1242;43594;-87
2023/06/19 04:47:51;;;;;;;8.00;6.20;;;;;;;16.69;73.60;96681.24;112280;1237;22559;-87
2023/06/19 04:50:21;;;;;;;7.60;6.40;;;;;;;16.73;73.47;96682.75;112272;1242;22536;-88
2023/06/19 04:52:52;;;;;;;8.10;6.80;;;;;;;16.77;73.33;96682.30;112282;1242;22503;-87
2023/06/19 04:55:21;;;;;;;7.80;7.00;;;;;;;16.81;73.31;96682.35;112237;1242;22495;-87
2023/06/19 04:57:52;;;;;;;7.20;6.50;;;;;;;16.89;73.17;96682.30;112286;1242;22496;-87
2023/06/19 05:00:23;;;;;;;7.50;6.70;;;;;;;16.97;72.85;96684.85;112283;1237;27544;-87
2023/06/19 05:02:59;;;;;;;9.10;6.30;;;;;;;17.05;72.71;96686.20;112256;1242;22499;-87
2023/06/19 05:05:29;;;;;;;7.60;6.80;;;;;;;17.13;72.56;96688.45;112193;1242;73680;-87
2023/06/19 05:07:58;;;;;;;7.70;6.90;;;;;;;17.21;72.45;96686.37;112089;1242;214509;-88
2023/06/19 05:10:27;;;;;;;7.80;6.70;;;;;;;17.30;72.34;96687.79;112271;1239;22511;-87
2023/06/19 05:12:59;;;;;;;7.60;6.70;;;;;;;17.42;72.24;96684.70;112260;1242;25356;-87
2023/06/19 05:15:28;;;;;;;7.90;7.10;;;;;;;17.51;71.91;96688.30;112190;1242;73420;-88
2023/06/19 05:17:57;;;;;;;7.30;6.60;;;;;;;17.64;72.06;96679.71;112254;1242;22592;-87
2023/06/19 05:20:25;;;;;;;8.20;6.90;;;;;;;17.84;71.84;96679.59;112246;1239;22621;-87
2023/06/19 05:22:55;;;;;;;7.10;6.40;;;;;;;18.02;71.56;96679.84;112232;1242;24008;-88
2023/06/19 05:25:25;;;;;;;7.00;6.30;;;;;;;18.66;72.39;96681.64;112180;1242;79806;-88
2023/06/19 05:27:53;;;;;;;6.50;5.90;;;;;;;19.82;71.53;96684.73;112257;1242;22519;-88
2023/06/19 05:30:24;;;;;;;6.70;6.00;;;;;;;21.00;70.14;96686.36;112280;1242;22497;-88
2023/06/19 05:33:07;;;;;;;9.30;5.90;;;;;;;22.25;68.11;96683.05;112234;1242;22488;-89
2023/06/19 05:36:17;;;;;;;6.40;5.70;;;;;;;23.35;65.51;96681.78;105183;1239;8985700;-88
2023/06/19 05:50:38;;;;;;;6.70;5.30;;;;;;;26.52;55.17;96688.71;110235;1254;22530;-89
2023/06/19 05:53:09;;;;;;;5.50;5.00;;;;;;;27.01;55.08;96693.69;111166;1248;22702;-88
2023/06/19 05:55:46;;;;;;;6.20;5.60;;;;;;;27.60;54.07;96694.73;112127;1242;25324;-88
2023/06/19 05:58:25;;;;;;;;;;;;;;;;;;;;;
2023/06/19 06:00:58;;;;;;;5.90;5.30;;;;;;;28.54;52.04;96699.66;112261;1243;22529;-89
2023/06/19 06:03:30;;;;;;;5.60;5.10;;;;;;;29.07;50.88;96701.69;112353;1242;22514;-90
2023/06/19 06:06:03;;;;;;;5.30;4.80;;;;;;;29.11;49.39;96704.39;112283;1242;65540;-89
2023/06/19 06:09:16;;;;;;;5.70;5.10;;;;;;;29.13;49.34;96707.90;112143;1242;23016;-90
2023/06/19 06:11:44;;;;;;;5.40;4.90;;;;;;;29.39;48.55;96705.98;112301;1236;22502;-90
2023/06/19 06:14:21;;;;;;;5.20;4.70;;;;;;;29.72;48.29;96708.69;112250;1243;22530;-89
2023/06/19 06:17:04;;;;;;;5.10;4.70;;;;;;;30.02;47.70;96714.33;110726;1242;1823885;-89
2023/06/19 06:19:47;;;;;;;5.60;5.10;;;;;;;30.24;47.12;96711.74;112241;1243;22532;-89
2023/06/19 06:22:23;;;;;;;6.90;5.20;;;;;;;30.13;46.14;96710.11;112129;1242;25363;-88
2023/06/19 06:24:54;;;;;;;5.50;4.80;;;;;;;29.71;45.56;96711.66;112272;1242;22531;-88
2023/06/19 06:27:27;;;;;;;5.30;4.80;;;;;;;29.47;45.84;96707.04;112102;1242;53120;-89
2023/06/19 06:30:28;;;;;;;;;;;;;;;;;;;;;
2023/06/19 06:33:21;;;;;;;5.50;4.90;;;;;;;29.95;44.99;96713.98;111850;1242;22503;-93
2023/06/19 06:36:00;;;;;;;5.20;4.70;;;;;;;29.90;44.78;96713.95;110748;1243;1873718;-88
2023/06/19 06:38:32;;;;;;;5.20;4.70;;;;;;;29.91;44.09;96715.42;112234;1243;22527;-89
2023/06/19 06:41:08;;;;;;;5.80;4.60;;;;;;;30.05;44.80;96718.83;112169;1242;22540;-88
2023/06/19 06:43:47;;;;;;;5.50;4.60;;;;;;;30.49;44.61;96717.38;112204;1239;25390;-89
2023/06/19 06:46:47;;;;;;;;;;;;;;;;;;;;;
2023/06/19 06:49:44;;;;;;;5.90;5.30;;;;;;;30.75;43.03;96718.86;112208;1242;24210;-89
2023/06/19 06:52:16;;;;;;;6.60;5.20;;;;;;;30.61;42.45;96722.58;112246;1242;25274;-87
2023/06/19 06:55:02;;;;;;;6.00;5.40;;;;;;;30.58;42.62;96722.52;112167;1242;22511;-87
2023/06/19 06:57:33;;;;;;;6.60;4.80;;;;;;;30.69;42.47;96729.31;112190;1239;49886;-88
2023/06/19 07:00:05;;;;;;;9.40;5.10;;;;;;;30.77;42.44;96729.46;112242;1242;22508;-89
2023/06/19 07:02:34;;;;;;;5.50;4.90;;;;;;;30.81;42.40;96731.38;112273;1242;22528;-88
2023/06/19 07:05:02;;;;;;;8.10;4.60;;;;;;;30.74;42.36;96730.98;112247;1242;22496;-83
2023/06/19 07:07:32;;;;;;;6.30;5.00;;;;;;;30.80;42.49;96733.90;112188;1242;22495;-86
2023/06/19 07:10:00;;;;;;;6.60;4.50;;;;;;;30.89;42.03;96731.21;112257;1242;22500;-83
2023/06/19 07:12:28;;;;;;;9.90;5.50;;;;;;;30.96;41.96;96730.42;112208;1242;25249;-83
2023/06/19 07:14:57;;;;;;;6.70;5.20;;;;;;;30.95;41.82;96729.71;112244;1242;25290;-84
2023/06/19 07:17:26;;;;;;;6.70;4.90;;;;;;;30.94;41.65;96734.98;112188;1242;22611;-84
2023/06/19 07:19:54;;;;;;;6.20;4.90;;;;;;;30.70;40.93;96732.02;112271;1242;22647;-84
2023/06/19 07:22:24;;;;;;;5.30;4.80;;;;;;;30.27;40.57;96728.67;112222;1242;23823;-85
2023/06/19 07:24:53;;;;;;;6.10;5.10;;;;;;;29.86;40.70;96725.53;112204;1227;23565;-91
2023/06/19 07:27:22;;;;;;;5.60;5.00;;;;;;;29.78;41.16;96721.92;112202;1243;23883;-83
2023/06/19 07:29:51;;;;;;;5.60;5.10;;;;;;;29.47;40.69;96718.44;112236;1239;22511;-85
2023/06/19 07:32:21;;;;;;;6.20;5.00;;;;;;;29.17;41.26;96721.70;112226;1242;22448;-85
2023/06/19 07:34:49;;;;;;;8.40;4.80;;;;;;;28.97;41.28;96722.38;112215;1243;22506;-84
2023/06/19 07:37:18;;;;;;;6.20;4.80;;;;;;;28.59;41.18;96726.30;112217;1243;22511;-87
2023/06/19 07:39:47;;;;;;;7.80;4.80;;;;;;;28.52;41.68;96726.55;112236;1242;22493;-87
2023/06/19 07:42:18;;;;;;;14.40;5.70;;;;;;;28.79;42.10;96723.75;112235;1242;24399;-86
2023/06/19 07:44:47;;;;;;;5.90;4.90;;;;;;;28.90;41.92;96726.39;112249;1242;22512;-86
2023/06/19 07:47:20;;;;;;;5.80;5.20;;;;;;;28.62;41.38;96732.91;112312;1242;43767;-86
2023/06/19 07:49:49;;;;;;;5.50;4.90;;;;;;;28.26;41.26;96731.61;112250;1242;22517;-86
2023/06/19 07:52:17;;;;;;;6.30;4.80;;;;;;;28.05;41.80;96733.48;112206;1242;22562;-86
2023/06/19 07:54:57;;;;;;;5.50;5.00;;;;;;;27.98;41.98;96735.66;112204;1242;22487;-87
2023/06/19 07:57:27;;;;;;;6.30;5.40;;;;;;;27.65;42.38;96741.37;112157;1242;60344;-87
2023/06/19 07:59:59;;;;;;;5.70;4.90;;;;;;;27.29;42.31;96743.11;112176;1242;22501;-86
2023/06/19 08:02:33;;;;;;;6.10;5.50;;;;;;;27.12;43.13;96743.28;112192;1242;22553;-87
2023/06/19 08:05:01;;;;;;;5.70;5.20;;;;;;;27.43;43.57;96746.67;112211;1243;22820;-86
2023/06/19 08:07:35;;;;;;;6.80;5.20;;;;;;;27.77;43.17;96741.86;112161;1239;45955;-87
2023/06/19 08:10:09;;;;;;;6.20;5.10;;;;;;;28.05;42.98;96741.04;112201;1242;22509;-87
2023/06/19 08:12:42;;;;;;;5.60;5.00;;;;;;;28.27;43.11;96738.88;112176;1242;22499;-87
2023/06/19 08:15:14;;;;;;;7.80;5.90;;;;;;;28.24;42.60;96742.06;112192;1239;24363;-85
2023/06/19 08:17:44;;;;;;;6.70;5.10;;;;;;;27.67;42.59;96744.95;112140;1242;53528;-86
2023/06/19 08:20:14;;;;;;;6.00;5.30;;;;;;;27.25;43.15;96742.41;112205;1242;22495;-86
2023/06/19 08:22:43;;;;;;;5.70;5.20;;;;;;;27.08;43.35;96743.83;112193;1235;22512;-86
2023/06/19 08:25:12;;;;;;;6.30;5.50;;;;;;;26.86;43.29;96743.06;112197;1242;25223;-86
2023/06/19 08:27:41;;;;;;;6.70;5.50;;;;;;;26.78;43.14;96745.20;112101;1243;91828;-87
2023/06/19 08:30:10;;;;;;;6.00;5.20;;;;;;;26.90;44.22;96748.06;112270;1242;24228;-86
2023/06/19 08:32:38;;;;;;;;;;;;;;;27.15;44.06;96746.80;112265;1242;22509;-87
2023/06/19 08:35:07;;;;;;;5.90;5.20;;;;;;;27.30;44.62;96743.20;112203;1242;22510;-87
2023/06/19 08:37:37;;;;;;;6.00;5.40;;;;;;;27.50;44.47;96738.29;112134;1242;46272;-86
2023/06/19 08:40:09;;;;;;;;;;;;;;;27.44;43.77;96732.90;112220;1242;22483;-86
2023/06/19 08:42:45;;;;;;;5.90;5.30;;;;;;;27.37;44.32;96732.80;112172;1239;22544;-86
2023/06/19 08:45:14;;;;;;;6.50;5.20;;;;;;;27.33;44.65;96732.58;112221;1242;23199;-86
2023/06/19 08:47:45;;;;;;;5.90;5.00;;;;;;;27.33;44.50;96732.02;112158;1242;39809;-87
2023/06/19 08:50:14;;;;;;;5.90;5.30;;;;;;;27.17;44.17;96738.18;112188;1241;22966;-87
2023/06/19 08:52:45;;;;;;;7.00;5.00;;;;;;;26.84;43.97;96739.48;112167;1239;22494;-87
2023/06/19 08:55:14;;;;;;;6.10;5.40;;;;;;;26.62;44.29;96739.66;112180;1242;22508;-87
2023/06/19 08:57:54;;;;;;;5.40;4.90;;;;;;;26.46;44.17;96745.55;112134;1242;60174;-86
2023/06/19 09:00:27;;;;;;;5.60;4.80;;;;;;;26.32;44.80;96744.88;112188;1242;22496;-86
2023/06/19 09:03:02;;;;;;;6.10;5.50;;;;;;;26.10;44.16;96745.55;112167;1242;22500;-86
2023/06/19 09:05:32;;;;;;;6.20;5.60;;;;;;;25.77;44.53;96744.02;112164;1242;22554;-86
2023/06/19 09:08:03;;;;;;;7.60;5.10;;;;;;;25.56;44.73;96744.72;112131;1242;55508;-86
2023/06/19 09:10:31;;;;;;;6.20;5.60;;;;;;;25.31;44.63;96745.53;112175;1242;22513;-86
2023/06/19 09:13:04;;;;;;;5.90;5.30;;;;;;;25.08;44.89;96739.45;112163;1241;22523;-85
2023/06/19 09:15:35;;;;;;;5.80;5.00;;;;;;;24.88;45.21;96739.80;112191;1242;22536;-85
2023/06/19 09:18:05;;;;;;;7.00;5.50;;;;;;;24.81;45.64;96740.70;112128;1242;47450;-86
2023/06/19 09:20:41;;;;;;;5.50;5.00;;;;;;;24.81;45.60;96738.86;112181;1242;25459;-86
2023/06/19 09:23:11;;;;;;;6.10;5.50;;;;;;;24.80;45.84;96735.51;112161;1242;24226;-86
2023/06/19 09:25:47;;;;;;;6.00;5.40;;;;;;;24.93;46.31;96731.34;112160;1242;23331;-87
2023/06/19 09:28:21;;;;;;;6.40;5.00;;;;;;;25.10;46.34;96727.62;112237;1242;25877;-83
2023/06/19 09:30:55;;;;;;;5.30;4.80;;;;;;;25.16;46.27;96725.12;112252;1242;22545;-83
2023/06/19 09:33:23;;;;;;;5.60;4.90;;;;;;;25.27;46.32;96723.85;112168;1242;22504;-82
2023/06/19 09:35:54;;;;;;;7.10;5.40;;;;;;;25.38;46.18;96725.14;112179;1242;22511;-82
2023/06/19 09:38:26;;;;;;;6.50;5.50;;;;;;;25.31;45.74;96722.73;112092;1244;22531;-83
2023/06/19 09:40:59;;;;;;;6.00;5.20;;;;;;;25.05;45.52;96723.13;112176;1244;22631;-83
2023/06/19 09:43:34;;;;;;;6.80;5.10;;;;;;;24.89;45.90;96723.77;112130;1239;22510;-83
2023/06/19 09:46:04;;;;;;;6.10;4.90;;;;;;;24.81;46.30;96722.35;112257;1244;34491;-83
2023/06/19 09:48:34;;;;;;;5.30;4.60;;;;;;;24.74;46.50;96722.10;112138;1244;22512;-83
2023/06/19 09:51:10;;;;;;;5.70;5.10;;;;;;;24.71;46.78;96726.48;112130;1244;22491;-83
2023/06/19 09:53:39;;;;;;;6.30;5.30;;;;;;;24.88;47.19;96726.94;112157;1244;22754;-83
2023/06/19 09:56:09;;;;;;;6.00;5.40;;;;;;;25.08;47.38;96722.33;112138;1241;22489;-83
2023/06/19 09:58:39;;;;;;;5.70;5.00;;;;;;;25.17;47.02;96720.02;112085;1244;22506;-84
2023/06/19 10:01:12;;;;;;;6.70;5.20;;;;;;;25.27;47.41;96717.02;112118;1244;22627;-83
2023/06/19 10:03:41;;;;;;;6.30;4.60;;;;;;;25.36;47.13;96716.98;112092;1244;22568;-84
2023/06/19 10:06:15;;;;;;;5.80;5.30;;;;;;;25.22;46.46;96720.39;112102;1244;51441;-84
2023/06/19 10:08:46;;;;;;;5.60;5.10;;;;;;;25.10;46.27;96716.92;112124;1244;22516;-83
2023/06/19 10:11:17;;;;;;;5.30;4.80;;;;;;;24.98;46.05;96714.28;112098;1244;22518;-85
2023/06/19 10:13:48;;;;;;;5.70;5.10;;;;;;;24.91;45.91;96714.32;112104;1241;24172;-83
2023/06/19 10:16:24;;;;;;;4.80;4.30;;;;;;;24.97;46.35;96716.73;112104;1244;31476;-83
2023/06/19 10:18:53;;;;;;;5.40;4.90;;;;;;;25.00;45.88;96714.16;112101;1244;26675;-84
2023/06/19 10:21:22;;;;;;;4.70;4.30;;;;;;;25.05;46.19;96710.66;112160;1242;22552;-85
2023/06/19 10:23:56;;;;;;;4.90;4.10;;;;;;;25.10;46.33;96710.02;112101;1244;22579;-85
2023/06/19 10:26:32;;;;;;;5.10;4.40;;;;;;;25.02;45.76;96713.93;112096;1244;57984;-85
2023/06/19 10:29:02;;;;;;;5.70;4.40;;;;;;;24.98;45.76;96710.63;112107;1244;24679;-85
2023/06/19 10:31:32;;;;;;;12.70;5.10;;;;;;;25.02;45.43;96707.89;112125;1241;24041;-86
2023/06/19 10:34:03;;;;;;;5.80;4.70;;;;;;;25.03;44.94;96706.67;112120;1244;24247;-86
2023/06/19 10:36:32;;;;;;;5.20;4.40;;;;;;;25.07;45.22;96705.02;112073;1241;80593;-86
2023/06/19 10:39:00;;;;;;;5.20;4.70;;;;;;;25.12;45.54;96704.55;112120;1244;22538;-87
2023/06/19 10:41:29;;;;;;;5.40;4.70;;;;;;;25.28;45.76;96705.57;112114;1244;22840;-87
2023/06/19 10:43:59;;;;;;;6.00;4.90;;;;;;;25.27;45.13;96705.63;112123;1244;22583;-88
2023/06/19 10:46:31;;;;;;;6.30;4.30;;;;;;;25.18;45.16;96706.54;112124;1244;24179;-87
2023/06/19 10:49:05;;;;;;;5.10;4.40;;;;;;;25.03;44.88;96706.45;112146;1241;24254;-87
2023/06/19 12:51:11;;;;;;;4.20;3.80;;;;;;;25.82;41.29;96653.52;105744;1305;545422;-82
2023/06/19 12:53:43;;;;;;;4.10;3.60;;;;;;;25.81;41.28;96650.64;108291;1284;22531;-80
2023/06/19 12:56:17;;;;;;;5.20;3.50;;;;;;;25.74;40.43;96654.07;108342;1276;22573;-79
2023/06/19 12:58:51;;;;;;;4.00;3.30;;;;;;;25.56;40.15;96653.49;108068;1282;74810;-79
2023/06/19 13:01:22;;;;;;;3.50;3.20;;;;;;;25.43;40.66;96649.88;108139;1285;25380;-79
2023/06/19 13:03:53;;;;;;;3.40;3.10;;;;;;;25.40;41.28;96646.45;107821;1279;248854;-79
2023/06/19 13:06:24;;;;;;;4.30;3.50;;;;;;;25.48;40.90;96647.38;108591;1273;22537;-81
2023/06/19 13:08:57;;;;;;;12.70;8.20;;;;;;;25.58;41.15;96642.34;108792;1275;118812;-80
2023/06/19 13:11:34;;;;;;;5.90;4.30;;;;;;;25.69;41.36;96644.63;108912;1270;22560;-82
2023/06/19 13:14:05;;;;;;;5.40;4.00;;;;;;;25.74;40.54;96635.52;108946;1275;22559;-80
2023/06/19 13:16:37;;;;;;;6.90;4.20;;;;;;;25.75;39.95;96638.17;108935;1275;24356;-80
2023/06/19 13:19:08;;;;;;;10.70;5.60;;;;;;;25.69;39.25;96636.88;108875;1276;22574;-81
2023/06/19 13:21:39;;;;;;;5.40;3.90;;;;;;;25.68;39.97;96636.39;108954;1273;24294;-81
2023/06/19 13:24:12;;;;;;;25.30;8.20;;;;;;;25.73;39.83;96637.67;109027;1273;22764;-81
2023/06/19 13:26:43;;;;;;;8.00;4.40;;;;;;;25.77;40.18;96631.76;108938;1273;49371;-82
2023/06/19 13:29:16;;;;;;;5.10;4.10;;;;;;;25.86;40.81;96630.88;109045;1273;24209;-81
2023/06/19 13:31:47;;;;;;;9.50;5.50;;;;;;;25.97;41.57;96631.20;108999;1272;22527;-80
2023/06/19 13:34:21;;;;;;;10.90;5.40;;;;;;;26.03;42.07;96634.04;109005;1270;22564;-82
2023/06/19 13:36:53;;;;;;;6.60;5.00;;;;;;;25.93;41.96;96628.53;108982;1272;45984;-81
2023/06/19 13:39:27;;;;;;;6.10;5.30;;;;;;;25.84;42.22;96633.66;109161;1272;25347;-82
2023/06/19 13:42:00;;;;;;;5.90;4.90;;;;;;;25.74;42.11;96631.56;109100;1264;24247;-80
2023/06/19 13:44:34;;;;;;;6.70;4.80;;;;;;;25.64;42.07;96634.02;109180;1272;25412;-80
2023/06/19 13:47:06;;;;;;;5.70;5.10;;;;;;;25.53;42.40;96631.29;108843;1272;22542;-79
2023/06/19 13:49:44;;;;;;;5.50;4.40;;;;;;;25.59;43.05;96630.40;109128;1264;22578;-78
2023/06/19 13:52:16;;;;;;;6.30;5.40;;;;;;;25.60;42.62;96628.94;109100;1267;22529;-77
2023/06/19 13:54:48;;;;;;;5.80;5.10;;;;;;;25.47;42.34;96629.06;108852;1266;22522;-78
2023/06/19 13:57:20;;;;;;;5.60;5.00;;;;;;;25.33;42.42;96629.55;109087;1270;22518;-78
2023/06/19 13:59:52;;;;;;;7.30;5.50;;;;;;;25.23;42.72;96631.02;108898;1267;23013;-78
2023/06/19 14:02:28;;;;;;;7.80;5.60;;;;;;;25.27;43.04;96632.67;108819;1270;22505;-78